Strona główna
METAR-TAF:

METAR-TAF

Lotnisko :

Bowman Field

Louisville, Kentucky, Stany Zjednoczone

Szerokość geograficzna: 38-13-40N, Długość geograficzna: 085-39-49W, wysokość: 166 m

Aktualna obserwacja pogody

Raport powstał 40 minut temu, godzina 12:53 UTC
Wiatr 8 kt od wschodnio-północny wschód
Temperatura 19°C
Wilgotność 64%
Ciśnienie 1022 hPa
Widzialność: 16.1 km
bezchmurnie

METAR: KLOU 241253Z 06008KT 10SM CLR 19/12 A3018 RMK AO2 SLP217 T01890122

czas: 09:33 (13:33 UTC)


TAF: brakujący

Obserwacja i prognoza pogody dla ponad 4000 lotnisk (raport METAR i TAF).

Dostępne stacje oznaczono żółtymi i czerwonymi punktami na mapie.

Najedź kursorem aby zobaczyć nazwę stacji.

Kliknij aby zobaczyć obserwacje i prognozy pogody.

Aby zmienić mapę: kliknij na zielony przycisk z czarnym krzyżykiem, aby powiększyć; na zielony przycisk z myślnikiem, aby pomniejszyć; na zielone strzałki, aby przejść do map sąsiednich.


METAR-TAF: